Time,TemperatureF,DewpointF,PressureIn,WindDirection,WindDirectionDegrees,WindSpeedMPH,WindSpeedGustMPH,Humidity,HourlyPrecipIn,Conditions,Clouds,dailyrainin,SoftwareType,DateUTC
2013-01-09 00:04:00,33.1,30.8,30.29,West,263,1.0,2.0,91,0.00,,,0.00,Wunderground v.1.15,2013-01-09 05:04:00,
2013-01-09 00:09:00,33.3,31.0,30.29,West,263,1.0,1.0,91,0.00,,,0.00,Wunderground v.1.15,2013-01-09 05:09:00,
2013-01-09 00:14:00,33.2,30.9,30.29,West,263,1.0,1.0,91,0.00,,,0.00,Wunderground v.1.15,2013-01-09 05:14:00,
2013-01-09 00:19:00,33.1,30.8,30.29,West,263,0.0,0.0,91,0.00,,,0.00,Wunderground v.1.15,2013-01-09 05:19:00,
2013-01-09 00:29:00,32.9,30.6,30.28,West,263,0.0,0.0,91,0.00,,,0.00,Wunderground v.1.15,2013-01-09 05:29:00,
2013-01-09 00:34:00,32.9,30.6,30.28,West,263,0.0,3.0,91,0.00,,,0.00,Wunderground v.1.15,2013-01-09 05:34:00,
2013-01-09 00:39:00,32.9,30.6,30.27,West,263,0.0,3.0,91,0.00,,,0.00,Wunderground v.1.15,2013-01-09 05:39:00,
2013-01-09 00:44:00,32.8,30.5,30.27,West,263,0.0,3.0,91,0.00,,,0.00,Wunderground v.1.15,2013-01-09 05:44:00,
2013-01-09 00:49:00,32.9,30.6,30.27,West,263,0.0,3.0,91,0.00,,,0.00,Wunderground v.1.15,2013-01-09 05:49:00,
2013-01-09 00:59:00,32.9,30.6,30.26,West,263,0.0,0.0,91,0.00,,,0.00,Wunderground v.1.15,2013-01-09 05:59:00,
2013-01-09 01:09:00,32.6,30.3,30.25,West,263,0.0,0.0,91,0.00,,,0.00,Wunderground v.1.15,2013-01-09 06:09:00,
2013-01-09 01:14:00,32.4,30.1,30.25,West,263,0.0,0.0,91,0.00,,,0.00,Wunderground v.1.15,2013-01-09 06:14:00,
2013-01-09 01:19:00,32.2,29.9,30.26,West,263,0.0,2.0,91,0.00,,,0.00,Wunderground v.1.15,2013-01-09 06:19:00,
2013-01-09 01:24:00,32.0,29.7,30.26,West,263,1.0,2.0,91,0.00,,,0.00,Wunderground v.1.15,2013-01-09 06:24:00,
2013-01-09 01:34:00,31.6,29.3,30.26,West,263,1.0,2.0,91,0.00,,,0.00,Wunderground v.1.15,2013-01-09 06:34:00,
2013-01-09 01:39:00,31.3,29.0,30.26,West,263,0.0,2.0,91,0.00,,,0.00,Wunderground v.1.15,2013-01-09 06:39:00,
2013-01-09 01:44:00,31.1,28.8,30.26,West,263,1.0,2.0,91,0.00,,,0.00,Wunderground v.1.15,2013-01-09 06:44:00,
2013-01-09 01:49:00,30.9,28.6,30.27,West,263,1.0,1.0,91,0.00,,,0.00,Wunderground v.1.15,2013-01-09 06:49:00,
2013-01-09 01:54:00,30.6,28.3,30.27,West,263,1.0,2.0,91,0.00,,,0.00,Wunderground v.1.15,2013-01-09 06:54:00,
2013-01-09 01:59:00,30.4,28.1,30.26,West,261,1.0,1.0,91,0.00,,,0.00,Wunderground v.1.15,2013-01-09 06:59:00,
2013-01-09 02:09:00,30.2,27.9,30.26,WSW,244,1.0,1.0,91,0.00,,,0.00,Wunderground v.1.15,2013-01-09 07:09:00,
2013-01-09 02:14:00,30.0,28.0,30.26,WSW,244,0.0,1.0,92,0.00,,,0.00,Wunderground v.1.15,2013-01-09 07:14:00,
2013-01-09 02:19:00,30.0,28.0,30.26,WSW,244,0.0,2.0,92,0.00,,,0.00,Wunderground v.1.15,2013-01-09 07:19:00,
2013-01-09 02:24:00,30.1,28.1,30.26,WSW,244,1.0,2.0,92,0.00,,,0.00,Wunderground v.1.15,2013-01-09 07:24:00,
2013-01-09 02:29:00,30.1,28.1,30.26,WSW,244,1.0,1.0,92,0.00,,,0.00,Wunderground v.1.15,2013-01-09 07:29:00,
2013-01-09 02:39:00,29.9,27.9,30.26,WSW,244,0.0,4.0,92,0.00,,,0.00,Wunderground v.1.15,2013-01-09 07:39:00,
2013-01-09 02:44:00,29.8,27.8,30.26,WSW,244,0.0,4.0,92,0.00,,,0.00,Wunderground v.1.15,2013-01-09 07:44:00,
2013-01-09 02:49:00,29.8,27.8,30.26,WSW,244,0.0,4.0,92,0.00,,,0.00,Wunderground v.1.15,2013-01-09 07:49:00,
2013-01-09 02:54:00,29.5,27.5,30.25,WSW,244,1.0,4.0,92,0.00,,,0.00,Wunderground v.1.15,2013-01-09 07:54:00,
2013-01-09 02:59:00,29.2,27.2,30.25,WSW,244,0.0,0.0,92,0.00,,,0.00,Wunderground v.1.15,2013-01-09 07:59:00,
2013-01-09 03:04:00,29.1,27.3,30.26,WSW,244,1.0,2.0,93,0.00,,,0.00,Wunderground v.1.15,2013-01-09 08:04:00,
2013-01-09 03:09:00,29.1,27.3,30.25,WSW,244,1.0,1.0,93,0.00,,,0.00,Wunderground v.1.15,2013-01-09 08:09:00,
2013-01-09 03:19:00,28.7,26.9,30.24,WSW,244,0.0,0.0,93,0.00,,,0.00,Wunderground v.1.15,2013-01-09 08:19:00,
2013-01-09 03:24:00,28.4,26.6,30.24,WSW,244,0.0,0.0,93,0.00,,,0.00,Wunderground v.1.15,2013-01-09 08:24:00,
2013-01-09 03:29:00,28.3,26.5,30.24,WSW,244,0.0,0.0,93,0.00,,,0.00,Wunderground v.1.15,2013-01-09 08:29:00,
2013-01-09 03:34:00,28.1,26.3,30.23,WSW,244,0.0,2.0,93,0.00,,,0.00,Wunderground v.1.15,2013-01-09 08:34:00,
2013-01-09 03:39:00,27.8,26.0,30.23,WSW,244,0.0,2.0,93,0.00,,,0.00,Wunderground v.1.15,2013-01-09 08:39:00,
2013-01-09 03:44:00,27.5,25.7,30.23,WSW,244,0.0,2.0,93,0.00,,,0.00,Wunderground v.1.15,2013-01-09 08:44:00,
2013-01-09 03:49:00,27.1,25.3,30.23,WSW,244,0.0,2.0,93,0.00,,,0.00,Wunderground v.1.15,2013-01-09 08:49:00,
2013-01-09 03:54:00,26.9,25.1,30.23,WSW,244,0.0,2.0,93,0.00,,,0.00,Wunderground v.1.15,2013-01-09 08:54:00,
2013-01-09 04:00:00,26.6,24.8,30.23,WSW,244,0.0,0.0,93,0.00,,,0.00,Wunderground v.1.15,2013-01-09 09:00:00,
2013-01-09 04:09:00,26.5,25.0,30.22,WSW,244,0.0,0.0,94,0.00,,,0.00,Wunderground v.1.15,2013-01-09 09:09:00,
2013-01-09 04:14:00,26.4,24.9,30.22,WSW,244,0.0,0.0,94,0.00,,,0.00,Wunderground v.1.15,2013-01-09 09:14:00,
2013-01-09 04:19:00,26.4,24.9,30.22,WSW,244,0.0,0.0,94,0.00,,,0.00,Wunderground v.1.15,2013-01-09 09:19:00,
2013-01-09 04:24:00,26.7,25.5,30.22,WSW,244,0.0,0.0,95,0.00,,,0.00,Wunderground v.1.15,2013-01-09 09:24:00,
2013-01-09 04:29:00,26.7,25.5,30.22,WSW,244,0.0,0.0,95,0.00,,,0.00,Wunderground v.1.15,2013-01-09 09:29:00,
2013-01-09 04:34:00,26.6,25.1,30.22,WSW,244,0.0,0.0,94,0.00,,,0.00,Wunderground v.1.15,2013-01-09 09:34:00,
2013-01-09 04:44:00,25.6,24.1,30.21,WSW,244,0.0,0.0,94,0.00,,,0.00,Wunderground v.1.15,2013-01-09 09:44:00,
2013-01-09 04:49:00,25.3,23.8,30.21,WSW,244,0.0,0.0,94,0.00,,,0.00,Wunderground v.1.15,2013-01-09 09:49:00,
2013-01-09 04:54:00,25.0,23.5,30.21,WSW,244,0.0,0.0,94,0.00,,,0.00,Wunderground v.1.15,2013-01-09 09:54:00,
2013-01-09 04:59:00,24.8,23.3,30.21,WSW,244,0.0,0.0,94,0.00,,,0.00,Wunderground v.1.15,2013-01-09 09:59:00,
2013-01-09 05:09:00,24.5,23.0,30.21,WSW,244,0.0,0.0,94,0.00,,,0.00,Wunderground v.1.15,2013-01-09 10:09:00,
2013-01-09 05:19:00,23.8,22.3,30.21,WSW,244,0.0,0.0,94,0.00,,,0.00,Wunderground v.1.15,2013-01-09 10:19:00,
2013-01-09 05:24:00,23.8,22.3,30.22,WSW,244,0.0,0.0,94,0.00,,,0.00,Wunderground v.1.15,2013-01-09 10:24:00,
2013-01-09 05:29:00,23.7,22.5,30.21,WSW,244,0.0,0.0,95,0.00,,,0.00,Wunderground v.1.15,2013-01-09 10:29:00,
2013-01-09 05:34:00,23.1,21.6,30.21,WSW,244,0.0,0.0,94,0.00,,,0.00,Wunderground v.1.15,2013-01-09 10:34:00,
2013-01-09 05:39:00,22.8,21.3,30.21,WSW,244,0.0,0.0,94,0.00,,,0.00,Wunderground v.1.15,2013-01-09 10:39:00,
2013-01-09 05:49:00,22.9,21.7,30.21,WSW,244,0.0,0.0,95,0.00,,,0.00,Wunderground v.1.15,2013-01-09 10:49:00,
2013-01-09 05:54:00,22.9,21.7,30.21,WSW,244,0.0,0.0,95,0.00,,,0.00,Wunderground v.1.15,2013-01-09 10:54:00,
2013-01-09 05:59:00,22.8,21.6,30.21,WSW,244,0.0,0.0,95,0.00,,,0.00,Wunderground v.1.15,2013-01-09 10:59:00,
2013-01-09 06:09:00,22.7,21.5,30.20,WSW,244,0.0,0.0,95,0.00,,,0.00,Wunderground v.1.15,2013-01-09 11:09:00,
2013-01-09 06:14:00,22.4,21.2,30.20,WSW,244,0.0,0.0,95,0.00,,,0.00,Wunderground v.1.15,2013-01-09 11:14:00,
2013-01-09 06:24:00,21.9,20.7,30.20,WSW,244,0.0,0.0,95,0.00,,,0.00,Wunderground v.1.15,2013-01-09 11:24:00,
2013-01-09 06:29:00,21.7,20.5,30.20,WSW,244,0.0,0.0,95,0.00,,,0.00,Wunderground v.1.15,2013-01-09 11:29:00,
2013-01-09 06:34:00,21.5,20.3,30.20,WSW,244,0.0,0.0,95,0.00,,,0.00,Wunderground v.1.15,2013-01-09 11:34:00,
2013-01-09 06:39:00,21.1,19.9,30.20,WSW,244,0.0,0.0,95,0.00,,,0.00,Wunderground v.1.15,2013-01-09 11:39:00,
2013-01-09 06:44:00,20.7,19.5,30.20,WSW,244,0.0,0.0,95,0.00,,,0.00,Wunderground v.1.15,2013-01-09 11:44:00,
2013-01-09 06:54:00,19.8,18.4,30.19,WSW,244,0.0,0.0,94,0.00,,,0.00,Wunderground v.1.15,2013-01-09 11:54:00,
2013-01-09 06:59:00,19.8,18.6,30.19,WSW,244,0.0,0.0,95,0.00,,,0.00,Wunderground v.1.15,2013-01-09 11:59:00,
2013-01-09 07:09:00,20.3,19.3,30.18,WSW,244,0.0,0.0,96,0.00,,,0.00,Wunderground v.1.15,2013-01-09 12:09:00,
2013-01-09 07:14:00,20.6,19.6,30.18,WSW,244,0.0,0.0,96,0.00,,,0.00,Wunderground v.1.15,2013-01-09 12:14:00,
2013-01-09 07:19:00,20.7,19.5,30.18,WSW,244,0.0,0.0,95,0.00,,,0.00,Wunderground v.1.15,2013-01-09 12:19:00,
2013-01-09 07:29:00,20.6,19.4,30.17,WSW,244,0.0,0.0,95,0.00,,,0.00,Wunderground v.1.15,2013-01-09 12:29:00,
2013-01-09 07:34:00,20.9,19.7,30.17,WSW,244,0.0,1.0,95,0.00,,,0.00,Wunderground v.1.15,2013-01-09 12:34:00,
2013-01-09 07:39:00,21.1,20.1,30.17,WSW,244,0.0,2.0,96,0.00,,,0.00,Wunderground v.1.15,2013-01-09 12:39:00,
2013-01-09 07:44:00,20.8,19.6,30.16,WSW,244,0.0,2.0,95,0.00,,,0.00,Wunderground v.1.15,2013-01-09 12:44:00,
2013-01-09 07:49:00,20.5,19.3,30.17,WSW,244,0.0,2.0,95,0.00,,,0.00,Wunderground v.1.15,2013-01-09 12:49:00,
2013-01-09 07:59:00,20.8,19.6,30.16,WSW,244,0.0,3.0,95,0.00,,,0.00,Wunderground v.1.15,2013-01-09 12:59:00,
2013-01-09 08:09:00,22.2,21.0,30.16,WSW,245,1.0,1.0,95,0.00,,,0.00,Wunderground v.1.15,2013-01-09 13:09:00,
2013-01-09 08:14:00,22.3,20.8,30.16,WSW,245,0.0,1.0,94,0.00,,,0.00,Wunderground v.1.15,2013-01-09 13:14:00,
2013-01-09 08:19:00,22.5,21.0,30.17,WSW,245,0.0,0.0,94,0.00,,,0.00,Wunderground v.1.15,2013-01-09 13:19:00,
2013-01-09 08:24:00,23.0,21.8,30.17,WSW,245,0.0,0.0,95,0.00,,,0.00,Wunderground v.1.15,2013-01-09 13:24:00,
2013-01-09 08:34:00,22.9,20.9,30.16,WSW,245,1.0,2.0,92,0.00,,,0.00,Wunderground v.1.15,2013-01-09 13:34:00,
2013-01-09 08:39:00,24.0,22.5,30.16,WSW,245,0.0,2.0,94,0.00,,,0.00,Wunderground v.1.15,2013-01-09 13:39:00,
2013-01-09 08:44:00,25.2,23.5,30.15,WSW,243,0.0,3.0,93,0.00,,,0.00,Wunderground v.1.15,2013-01-09 13:44:00,
2013-01-09 08:49:00,25.8,23.0,30.14,WSW,238,2.0,3.0,89,0.00,,,0.00,Wunderground v.1.15,2013-01-09 13:49:00,
2013-01-09 08:54:00,25.7,22.4,30.14,WSW,238,3.0,3.0,87,0.00,,,0.00,Wunderground v.1.15,2013-01-09 13:54:00,
2013-01-09 08:59:00,26.1,22.8,30.15,WSW,238,2.0,2.0,87,0.00,,,0.00,Wunderground v.1.15,2013-01-09 13:59:00,
2013-01-09 09:09:00,27.1,23.2,30.14,WSW,239,2.0,5.0,85,0.00,,,0.00,Wunderground v.1.15,2013-01-09 14:09:00,
2013-01-09 09:14:00,27.9,23.4,30.13,WSW,238,4.0,5.0,83,0.00,,,0.00,Wunderground v.1.15,2013-01-09 14:14:00,
2013-01-09 09:19:00,28.6,23.8,30.13,SW,230,4.0,4.0,82,0.00,,,0.00,Wunderground v.1.15,2013-01-09 14:19:00,
2013-01-09 09:24:00,29.0,23.9,30.13,SW,236,4.0,6.0,81,0.00,,,0.00,Wunderground v.1.15,2013-01-09 14:24:00,
2013-01-09 09:29:00,29.3,23.9,30.12,SW,233,5.0,6.0,80,0.00,,,0.00,Wunderground v.1.15,2013-01-09 14:29:00,
2013-01-09 09:39:00,29.2,24.1,30.09,SW,218,4.0,6.0,81,0.00,,,0.00,Wunderground v.1.15,2013-01-09 14:39:00,
2013-01-09 09:44:00,30.1,24.7,30.08,SW,214,5.0,6.0,80,0.00,,,0.00,Wunderground v.1.15,2013-01-09 14:44:00,
2013-01-09 09:49:00,30.8,25.1,30.06,SW,217,6.0,7.0,79,0.00,,,0.00,Wunderground v.1.15,2013-01-09 14:49:00,
2013-01-09 09:54:00,31.3,25.2,30.04,SSW,211,6.0,7.0,78,0.00,,,0.00,Wunderground v.1.15,2013-01-09 14:54:00,
2013-01-09 09:59:00,31.6,25.2,30.02,SW,214,7.0,7.0,77,0.00,,,0.00,Wunderground v.1.15,2013-01-09 14:59:00,
2013-01-09 10:09:00,32.0,25.3,30.00,SSW,202,7.0,7.0,76,0.00,,,0.00,Wunderground v.1.15,2013-01-09 15:09:00,
2013-01-09 10:14:00,32.3,25.6,29.98,SSW,208,6.0,10.0,76,0.00,,,0.00,Wunderground v.1.15,2013-01-09 15:14:00,
2013-01-09 10:19:00,32.7,25.6,29.98,SW,219,7.0,7.0,75,0.00,,,0.00,Wunderground v.1.15,2013-01-09 15:19:00,
2013-01-09 10:24:00,33.2,26.1,30.01,West,265,6.0,7.0,75,0.00,,,0.00,Wunderground v.1.15,2013-01-09 15:24:00,
2013-01-09 10:29:00,33.3,26.5,30.05,WNW,293,3.0,3.0,76,0.00,,,0.00,Wunderground v.1.15,2013-01-09 15:29:00,
2013-01-09 10:34:00,33.3,26.5,30.06,NW,323,2.0,11.0,76,0.00,,,0.00,Wunderground v.1.15,2013-01-09 15:34:00,
2013-01-09 10:39:00,33.4,27.0,30.05,NW,323,2.0,2.0,77,0.00,,,0.00,Wunderground v.1.15,2013-01-09 15:39:00,
2013-01-09 10:49:00,33.9,27.4,30.06,WNW,296,0.0,11.0,77,0.00,,,0.00,Wunderground v.1.15,2013-01-09 15:49:00,
2013-01-09 10:54:00,34.2,27.7,30.04,WNW,296,0.0,11.0,77,0.00,,,0.00,Wunderground v.1.15,2013-01-09 15:54:00,
2013-01-09 10:59:00,34.5,27.7,30.04,NNW,331,0.0,0.0,76,0.00,,,0.00,Wunderground v.1.15,2013-01-09 15:59:00,
2013-01-09 11:09:00,34.9,28.1,30.04,WNW,284,0.0,4.0,76,0.00,,,0.00,Wunderground v.1.15,2013-01-09 16:09:00,
2013-01-09 11:14:00,35.2,28.1,30.03,WSW,237,1.0,4.0,75,0.00,,,0.00,Wunderground v.1.15,2013-01-09 16:14:00,
2013-01-09 11:19:00,35.3,28.5,30.02,SW,235,1.0,2.0,76,0.00,,,0.00,Wunderground v.1.15,2013-01-09 16:19:00,
2013-01-09 11:24:00,35.6,28.8,30.02,SW,235,1.0,3.0,76,0.00,,,0.00,Wunderground v.1.15,2013-01-09 16:24:00,
2013-01-09 11:29:00,35.9,28.7,30.01,WSW,242,2.0,3.0,75,0.00,,,0.00,Wunderground v.1.15,2013-01-09 16:29:00,
2013-01-09 11:34:00,36.1,28.6,30.00,WSW,240,3.0,4.0,74,0.00,,,0.00,Wunderground v.1.15,2013-01-09 16:34:00,
2013-01-09 11:44:00,36.6,29.4,29.99,WSW,241,3.0,7.0,75,0.00,,,0.00,Wunderground v.1.15,2013-01-09 16:44:00,
2013-01-09 11:49:00,36.9,29.7,29.98,WSW,240,2.0,7.0,75,0.00,,,0.00,Wunderground v.1.15,2013-01-09 16:49:00,
2013-01-09 11:54:00,37.1,29.6,29.98,SW,234,2.0,7.0,74,0.00,,,0.00,Wunderground v.1.15,2013-01-09 16:54:00,
2013-01-09 11:59:00,37.3,29.8,29.97,WSW,246,4.0,4.0,74,0.00,,,0.00,Wunderground v.1.15,2013-01-09 16:59:00,
2013-01-09 12:09:00,38.1,30.2,29.95,SW,232,5.0,9.0,73,0.00,,,0.00,Wunderground v.1.15,2013-01-09 17:09:00,
2013-01-09 12:19:00,38.7,30.8,29.94,SW,233,5.0,6.0,73,0.00,,,0.00,Wunderground v.1.15,2013-01-09 17:19:00,
2013-01-09 12:24:00,38.8,30.5,29.93,WSW,239,5.0,6.0,72,0.00,,,0.00,Wunderground v.1.15,2013-01-09 17:24:00,
2013-01-09 12:29:00,39.0,30.7,29.92,WSW,255,5.0,8.0,72,0.00,,,0.00,Wunderground v.1.15,2013-01-09 17:29:00,
2013-01-09 12:34:00,39.2,30.9,29.91,WSW,238,5.0,8.0,72,0.00,,,0.00,Wunderground v.1.15,2013-01-09 17:34:00,
2013-01-09 12:39:00,39.2,30.6,29.90,WSW,238,6.0,8.0,71,0.00,,,0.00,Wunderground v.1.15,2013-01-09 17:39:00,
2013-01-09 12:49:00,39.2,32.3,29.88,SW,221,7.0,8.0,76,0.00,,,0.00,Wunderground v.1.15,2013-01-09 17:49:00,
2013-01-09 12:54:00,39.2,30.9,29.88,WSW,240,7.0,12.0,72,0.00,,,0.00,Wunderground v.1.15,2013-01-09 17:54:00,
2013-01-09 12:59:00,39.5,30.9,29.88,WSW,256,8.0,9.0,71,0.00,,,0.00,Wunderground v.1.15,2013-01-09 17:59:00,
2013-01-09 13:09:00,39.6,31.3,29.86,WSW,238,6.0,10.0,72,0.00,,,0.00,Wunderground v.1.15,2013-01-09 18:09:00,
2013-01-09 13:19:00,40.0,31.4,29.84,SW,236,5.0,12.0,71,0.00,,,0.00,Wunderground v.1.15,2013-01-09 18:19:00,
2013-01-09 13:24:00,40.2,31.5,29.85,WSW,242,5.0,12.0,71,0.00,,,0.00,Wunderground v.1.15,2013-01-09 18:24:00,
2013-01-09 13:29:00,40.3,32.0,29.84,ENE,75,4.0,4.0,72,0.00,,,0.00,Wunderground v.1.15,2013-01-09 18:29:00,
2013-01-09 13:39:00,40.3,32.0,29.84,North,350,2.0,14.0,72,0.00,,,0.00,Wunderground v.1.15,2013-01-09 18:39:00,
2013-01-09 13:44:00,40.5,32.2,29.84,WNW,292,3.0,14.0,72,0.00,,,0.00,Wunderground v.1.15,2013-01-09 18:44:00,
2013-01-09 13:49:00,40.2,31.9,29.85,WSW,238,3.0,3.0,72,0.00,,,0.00,Wunderground v.1.15,2013-01-09 18:49:00,
2013-01-09 13:54:00,40.1,32.5,29.85,SW,226,2.0,14.0,74,0.00,,,0.00,Wunderground v.1.15,2013-01-09 18:54:00,
2013-01-09 13:59:00,39.9,32.3,29.85,WSW,238,2.0,2.0,74,0.00,,,0.00,Wunderground v.1.15,2013-01-09 18:59:00,
2013-01-09 14:04:00,39.8,32.2,29.85,West,269,1.0,2.0,74,0.00,,,0.00,Wunderground v.1.15,2013-01-09 19:04:00,
2013-01-09 14:09:00,39.9,32.3,29.85,NW,309,1.0,1.0,74,0.00,,,0.00,Wunderground v.1.15,2013-01-09 19:09:00,
2013-01-09 14:14:00,40.1,32.5,29.85,WSW,242,2.0,2.0,74,0.00,,,0.00,Wunderground v.1.15,2013-01-09 19:14:00,
2013-01-09 14:19:00,40.1,32.8,29.84,SW,234,2.0,2.0,75,0.00,,,0.00,Wunderground v.1.15,2013-01-09 19:19:00,
2013-01-09 14:29:00,40.1,32.8,29.83,NW,304,2.0,2.0,75,0.00,,,0.01,Wunderground v.1.15,2013-01-09 19:29:00,
2013-01-09 14:34:00,40.0,33.0,29.83,WSW,250,2.0,3.0,76,0.00,,,0.01,Wunderground v.1.15,2013-01-09 19:34:00,
2013-01-09 14:39:00,39.8,33.2,29.83,WSW,240,2.0,2.0,77,0.04,,,0.02,Wunderground v.1.15,2013-01-09 19:39:00,
2013-01-09 14:44:00,39.6,33.3,29.83,WSW,255,1.0,4.0,78,0.04,,,0.02,Wunderground v.1.15,2013-01-09 19:44:00,
2013-01-09 14:49:00,39.7,33.4,29.83,WSW,241,2.0,9.0,78,0.04,,,0.02,Wunderground v.1.15,2013-01-09 19:49:00,
2013-01-09 14:54:00,39.7,33.4,29.82,West,264,2.0,9.0,78,0.04,,,0.02,Wunderground v.1.15,2013-01-09 19:54:00,
2013-01-09 14:59:00,39.7,33.1,29.82,WSW,250,3.0,4.0,77,0.04,,,0.03,Wunderground v.1.15,2013-01-09 19:59:00,
2013-01-09 15:09:00,39.7,33.1,29.82,SW,234,3.0,6.0,77,0.04,,,0.04,Wunderground v.1.15,2013-01-09 20:09:00,
2013-01-09 15:14:00,39.6,33.0,29.82,SSE,160,3.0,6.0,77,0.04,,,0.04,Wunderground v.1.15,2013-01-09 20:14:00,
2013-01-09 15:19:00,39.5,32.9,29.82,West,267,2.0,2.0,77,0.04,,,0.04,Wunderground v.1.15,2013-01-09 20:19:00,
2013-01-09 15:24:00,39.3,33.0,29.82,WSW,248,1.0,2.0,78,0.04,,,0.04,Wunderground v.1.15,2013-01-09 20:24:00,
2013-01-09 15:34:00,39.6,33.3,29.82,NW,325,2.0,10.0,78,0.04,,,0.05,Wunderground v.1.15,2013-01-09 20:34:00,
2013-01-09 15:39:00,39.6,33.3,29.81,WSW,242,2.0,10.0,78,0.04,,,0.05,Wunderground v.1.15,2013-01-09 20:39:00,
2013-01-09 15:44:00,39.6,33.3,29.82,West,269,2.0,10.0,78,0.04,,,0.06,Wunderground v.1.15,2013-01-09 20:44:00,
2013-01-09 15:49:00,39.4,33.4,29.82,West,260,1.0,10.0,79,0.04,,,0.06,Wunderground v.1.15,2013-01-09 20:49:00,
2013-01-09 15:54:00,39.4,33.4,29.83,ENE,57,1.0,10.0,79,0.04,,,0.06,Wunderground v.1.15,2013-01-09 20:54:00,
2013-01-09 15:59:00,39.3,33.3,29.83,NNW,331,1.0,1.0,79,0.00,,,0.06,Wunderground v.1.15,2013-01-09 20:59:00,
2013-01-09 16:04:00,39.5,33.8,29.82,West,267,2.0,8.0,80,0.00,,,0.07,Wunderground v.1.15,2013-01-09 21:04:00,
2013-01-09 16:09:00,39.7,34.0,29.82,NW,321,2.0,6.0,80,0.00,,,0.07,Wunderground v.1.15,2013-01-09 21:09:00,
2013-01-09 16:14:00,40.0,34.3,29.81,WNW,296,2.0,6.0,80,0.00,,,0.07,Wunderground v.1.15,2013-01-09 21:14:00,
2013-01-09 16:24:00,40.0,34.6,29.82,NW,309,2.0,4.0,81,0.04,,,0.08,Wunderground v.1.15,2013-01-09 21:24:00,
2013-01-09 16:29:00,40.2,34.8,29.82,North,355,2.0,2.0,81,0.04,,,0.08,Wunderground v.1.15,2013-01-09 21:29:00,
2013-01-09 16:34:00,40.1,34.7,29.82,SW,227,3.0,3.0,81,0.04,,,0.09,Wunderground v.1.15,2013-01-09 21:34:00,
2013-01-09 16:39:00,40.0,34.9,29.82,WNW,284,2.0,2.0,82,0.04,,,0.09,Wunderground v.1.15,2013-01-09 21:39:00,
2013-01-09 16:44:00,39.9,34.9,29.82,NW,315,2.0,9.0,82,0.04,,,0.09,Wunderground v.1.15,2013-01-09 21:44:00,
2013-01-09 16:49:00,39.8,34.8,29.82,West,269,2.0,2.0,82,0.00,,,0.10,Wunderground v.1.15,2013-01-09 21:49:00,
2013-01-09 16:54:00,39.6,34.9,29.82,WNW,284,3.0,3.0,83,0.00,,,0.10,Wunderground v.1.15,2013-01-09 21:54:00,
2013-01-09 16:59:00,39.5,35.1,29.82,NW,321,2.0,4.0,84,0.00,,,0.10,Wunderground v.1.15,2013-01-09 21:59:00,
2013-01-09 17:09:00,39.4,35.0,29.83,ENE,76,3.0,3.0,84,0.00,,,0.10,Wunderground v.1.15,2013-01-09 22:09:00,
2013-01-09 17:14:00,39.4,35.0,29.83,WNW,303,3.0,4.0,84,0.00,,,0.11,Wunderground v.1.15,2013-01-09 22:14:00,
2013-01-09 17:19:00,39.4,35.0,29.84,WNW,297,3.0,3.0,84,0.00,,,0.11,Wunderground v.1.15,2013-01-09 22:19:00,
2013-01-09 17:24:00,39.5,35.1,29.84,West,272,3.0,3.0,84,0.00,,,0.11,Wunderground v.1.15,2013-01-09 22:24:00,
2013-01-09 17:29:00,39.4,35.0,29.85,WNW,296,3.0,3.0,84,0.00,,,0.11,Wunderground v.1.15,2013-01-09 22:29:00,
2013-01-09 17:34:00,39.2,34.8,29.85,SW,234,2.0,19.0,84,0.00,,,0.12,Wunderground v.1.15,2013-01-09 22:34:00,
2013-01-09 17:44:00,38.9,34.8,29.86,WNW,302,2.0,19.0,85,0.00,,,0.12,Wunderground v.1.15,2013-01-09 22:44:00,
2013-01-09 17:49:00,39.1,35.0,29.87,WNW,300,3.0,19.0,85,0.00,,,0.12,Wunderground v.1.15,2013-01-09 22:49:00,
2013-01-09 17:54:00,39.1,34.7,29.88,NW,320,4.0,19.0,84,0.00,,,0.13,Wunderground v.1.15,2013-01-09 22:54:00,
2013-01-09 17:59:00,38.9,34.8,29.88,WNW,293,4.0,7.0,85,0.00,,,0.13,Wunderground v.1.15,2013-01-09 22:59:00,
2013-01-09 18:09:00,38.8,34.7,29.89,NW,321,3.0,3.0,85,0.04,,,0.14,Wunderground v.1.15,2013-01-09 23:09:00,
2013-01-09 18:14:00,38.7,34.6,29.89,NNW,327,3.0,5.0,85,0.04,,,0.14,Wunderground v.1.15,2013-01-09 23:14:00,
2013-01-09 18:19:00,38.8,34.4,29.90,West,278,4.0,4.0,84,0.04,,,0.14,Wunderground v.1.15,2013-01-09 23:19:00,
2013-01-09 18:24:00,38.7,34.3,29.90,WNW,294,3.0,4.0,84,0.00,,,0.14,Wunderground v.1.15,2013-01-09 23:24:00,
2013-01-09 18:29:00,38.6,33.9,29.90,NW,304,2.0,3.0,83,0.00,,,0.14,Wunderground v.1.15,2013-01-09 23:29:00,
2013-01-09 18:34:00,38.3,33.6,29.91,NW,321,2.0,15.0,83,0.00,,,0.14,Wunderground v.1.15,2013-01-09 23:34:00,
2013-01-09 18:39:00,38.1,33.4,29.91,WNW,302,1.0,15.0,83,0.00,,,0.14,Wunderground v.1.15,2013-01-09 23:39:00,
2013-01-09 18:49:00,37.8,33.4,29.92,SW,234,1.0,1.0,84,0.00,,,0.15,Wunderground v.1.15,2013-01-09 23:49:00,
2013-01-09 18:54:00,37.9,33.5,29.92,NW,305,1.0,15.0,84,0.00,,,0.15,Wunderground v.1.15,2013-01-09 23:54:00,
2013-01-09 18:59:00,37.8,33.1,29.92,NW,308,1.0,1.0,83,0.00,,,0.15,Wunderground v.1.15,2013-01-09 23:59:00,
2013-01-09 19:09:00,37.4,33.0,29.92,NE,43,0.0,0.0,84,0.00,,,0.15,Wunderground v.1.15,2013-01-10 00:09:00,
2013-01-09 19:19:00,37.4,32.7,29.92,NW,319,1.0,1.0,83,0.00,,,0.15,Wunderground v.1.15,2013-01-10 00:19:00,
2013-01-09 19:24:00,37.4,32.7,29.92,NW,307,1.0,1.0,83,0.00,,,0.15,Wunderground v.1.15,2013-01-10 00:24:00,
2013-01-09 19:29:00,37.4,32.7,29.93,WNW,294,1.0,1.0,83,0.00,,,0.15,Wunderground v.1.15,2013-01-10 00:29:00,
2013-01-09 19:34:00,37.5,32.8,29.93,West,277,1.0,10.0,83,0.00,,,0.15,Wunderground v.1.15,2013-01-10 00:34:00,
2013-01-09 19:39:00,37.5,32.8,29.93,South,189,2.0,2.0,83,0.00,,,0.15,Wunderground v.1.15,2013-01-10 00:39:00,
2013-01-09 19:44:00,37.5,32.8,29.93,WSW,240,1.0,10.0,83,0.00,,,0.15,Wunderground v.1.15,2013-01-10 00:44:00,
2013-01-09 19:54:00,37.5,32.8,29.93,WNW,289,1.0,10.0,83,0.00,,,0.15,Wunderground v.1.15,2013-01-10 00:54:00,
2013-01-09 19:59:00,37.5,32.8,29.93,NW,314,1.0,1.0,83,0.00,,,0.15,Wunderground v.1.15,2013-01-10 00:59:00,
2013-01-09 20:09:00,37.7,33.0,29.93,West,260,2.0,2.0,83,0.00,,,0.15,Wunderground v.1.15,2013-01-10 01:09:00,
2013-01-09 20:14:00,37.8,33.1,29.93,West,277,2.0,3.0,83,0.00,,,0.15,Wunderground v.1.15,2013-01-10 01:14:00,
2013-01-09 20:24:00,37.7,33.0,29.93,West,279,2.0,2.0,83,0.00,,,0.16,Wunderground v.1.15,2013-01-10 01:24:00,
2013-01-09 20:29:00,37.6,32.9,29.93,WNW,302,2.0,2.0,83,0.00,,,0.16,Wunderground v.1.15,2013-01-10 01:29:00,
2013-01-09 20:34:00,37.7,32.7,29.93,NW,312,2.0,4.0,82,0.00,,,0.16,Wunderground v.1.15,2013-01-10 01:34:00,
2013-01-09 20:39:00,37.7,32.7,29.93,NNW,338,2.0,9.0,82,0.00,,,0.16,Wunderground v.1.15,2013-01-10 01:39:00,
2013-01-09 20:44:00,37.6,32.9,29.93,NW,313,2.0,9.0,83,0.00,,,0.16,Wunderground v.1.15,2013-01-10 01:44:00,
2013-01-09 20:49:00,37.5,32.8,29.93,West,265,2.0,9.0,83,0.00,,,0.16,Wunderground v.1.15,2013-01-10 01:49:00,
2013-01-09 20:59:00,37.5,32.8,29.94,NW,307,2.0,2.0,83,0.00,,,0.16,Wunderground v.1.15,2013-01-10 01:59:00,
2013-01-09 21:09:00,37.4,32.7,29.94,NW,311,1.0,3.0,83,0.00,,,0.16,Wunderground v.1.15,2013-01-10 02:09:00,
2013-01-09 21:14:00,37.3,32.6,29.94,NW,310,1.0,3.0,83,0.00,,,0.16,Wunderground v.1.15,2013-01-10 02:14:00,
2013-01-09 21:19:00,37.5,32.8,29.94,WNW,292,2.0,2.0,83,0.00,,,0.16,Wunderground v.1.15,2013-01-10 02:19:00,
2013-01-09 21:29:00,37.5,32.8,29.95,NW,309,2.0,2.0,83,0.00,,,0.16,Wunderground v.1.15,2013-01-10 02:29:00,
2013-01-09 21:34:00,37.6,32.6,29.95,North,360,2.0,3.0,82,0.00,,,0.16,Wunderground v.1.15,2013-01-10 02:34:00,
2013-01-09 21:39:00,37.7,32.7,29.95,NW,313,3.0,13.0,82,0.00,,,0.16,Wunderground v.1.15,2013-01-10 02:39:00,
2013-01-09 21:44:00,37.9,32.6,29.96,NW,325,3.0,13.0,81,0.00,,,0.16,Wunderground v.1.15,2013-01-10 02:44:00,
2013-01-09 21:49:00,38.1,32.8,29.96,NNE,26,5.0,13.0,81,0.00,,,0.16,Wunderground v.1.15,2013-01-10 02:49:00,
2013-01-09 21:54:00,38.2,32.9,29.96,NNW,338,6.0,13.0,81,0.00,,,0.16,Wunderground v.1.15,2013-01-10 02:54:00,
2013-01-09 21:59:00,38.4,32.8,29.97,NW,318,8.0,13.0,80,0.00,,,0.16,Wunderground v.1.15,2013-01-10 02:59:00,
2013-01-09 22:09:00,38.7,32.4,29.98,NNW,337,10.0,10.0,78,0.00,,,0.17,Wunderground v.1.15,2013-01-10 03:09:00,
2013-01-09 22:14:00,38.5,32.6,29.99,NW,322,11.0,13.0,79,0.00,,,0.17,Wunderground v.1.15,2013-01-10 03:14:00,
2013-01-09 22:19:00,38.3,32.7,30.00,North,5,12.0,12.0,80,0.00,,,0.17,Wunderground v.1.15,2013-01-10 03:19:00,
2013-01-09 22:24:00,38.0,32.4,30.01,NNW,331,12.0,12.0,80,0.00,,,0.17,Wunderground v.1.15,2013-01-10 03:24:00,
2013-01-09 22:29:00,38.2,32.6,30.01,NW,318,11.0,11.0,80,0.00,,,0.17,Wunderground v.1.15,2013-01-10 03:29:00,
2013-01-09 22:34:00,38.1,32.5,30.02,North,351,11.0,12.0,80,0.00,,,0.17,Wunderground v.1.15,2013-01-10 03:34:00,
2013-01-09 22:44:00,37.9,32.3,30.02,NNW,346,8.0,17.0,80,0.00,,,0.17,Wunderground v.1.15,2013-01-10 03:44:00,
2013-01-09 22:49:00,37.9,32.3,30.02,NNW,340,8.0,8.0,80,0.00,,,0.17,Wunderground v.1.15,2013-01-10 03:49:00,
2013-01-09 22:54:00,38.0,32.1,30.02,NW,326,8.0,17.0,79,0.00,,,0.17,Wunderground v.1.15,2013-01-10 03:54:00,
2013-01-09 22:59:00,37.9,32.0,30.03,NNW,336,8.0,8.0,79,0.00,,,0.17,Wunderground v.1.15,2013-01-10 03:59:00,
2013-01-09 23:04:00,37.9,31.7,30.03,NNW,327,8.0,10.0,78,0.00,,,0.17,Wunderground v.1.15,2013-01-10 04:04:00,
2013-01-09 23:09:00,37.8,31.6,30.03,NW,319,8.0,8.0,78,0.00,,,0.17,Wunderground v.1.15,2013-01-10 04:09:00,
2013-01-09 23:14:00,37.8,31.6,30.04,NW,320,8.0,8.0,78,0.00,,,0.17,Wunderground v.1.15,2013-01-10 04:14:00,
2013-01-09 23:19:00,37.8,31.6,30.04,North,360,8.0,13.0,78,0.00,,,0.17,Wunderground v.1.15,2013-01-10 04:19:00,
2013-01-09 23:24:00,37.9,31.3,30.04,NNW,333,8.0,13.0,77,0.00,,,0.17,Wunderground v.1.15,2013-01-10 04:24:00,
2013-01-09 23:29:00,37.8,31.6,30.05,NNW,343,8.0,10.0,78,0.00,,,0.17,Wunderground v.1.15,2013-01-10 04:29:00,
2013-01-09 23:39:00,37.9,31.0,30.05,North,349,8.0,20.0,76,0.00,,,0.17,Wunderground v.1.15,2013-01-10 04:39:00,
2013-01-09 23:44:00,37.9,31.0,30.06,NW,315,8.0,20.0,76,0.00,,,0.17,Wunderground v.1.15,2013-01-10 04:44:00,
2013-01-09 23:49:00,37.9,31.0,30.06,NNW,335,8.0,20.0,76,0.00,,,0.17,Wunderground v.1.15,2013-01-10 04:49:00,
2013-01-09 23:54:00,37.8,30.9,30.07,NNW,331,8.0,20.0,76,0.00,,,0.17,Wunderground v.1.15,2013-01-10 04:54:00,
2013-01-09 23:59:00,37.8,30.9,30.07,North,360,9.0,9.0,76,0.00,,,0.17,Wunderground v.1.15,2013-01-10 04:59:00,